San Ignacio Velasco, Bolivia
Current Conditions -  °F | °C
As of 10:00 AM on Saturday 20 Dec 2014 (Local Time) from SLVR Reporting Station
Overcast Overcast  
Wind Chill: 75°   Ceiling: 1200
Heat Index: 75°   Visibility: 6mi
Dew Point: 75°   Wind: 16mph
Humidity: 100%   Direction: 340°NNW
Pressure: 29.71"   Gusts: 32mph
Location:  16.38°S, 60.95°W
Report Text: SLVR 201400Z 34014G28KT 9999 BKN012 OVC070 24/24 Q1006
Loading
Personal Weather Stations






























Interactive Weather Map New forecast layout! Learn more

10-Day Weather Forecast

Advertisements
Track Severe Weather on mobile